Time;durP1;ratioP1;P1;durP2;ratioP2;P2;SDS_P1;SDS_P2;PMS_P1;PMS_P2;Temp;Humidity;BMP_temperature;BMP_pressure;BME280_temperature;BME280_humidity;BME280_pressure;Samples;Min_cycle;Max_cycle;Signal;HPM_P1;HPM_P2
2021/04/16 00:00:49;;;;;;;21.10;10.93;;;5.00;99.90;;;;;;4863825;29;20220;-84
2021/04/16 00:03:15;;;;;;;19.73;10.23;;;5.00;99.90;;;;;;4864141;29;20252;-84
2021/04/16 00:05:41;;;;;;;18.13;8.83;;;5.00;99.90;;;;;;4878285;29;20522;-84
2021/04/16 00:08:10;;;;;;;16.90;9.00;;;5.00;99.90;;;;;;4864407;29;20190;-85
2021/04/16 00:10:43;;;;;;;17.97;9.77;;;5.00;99.90;;;;;;4864059;29;20209;-84
2021/04/16 00:13:11;;;;;;;18.80;10.60;;;5.00;99.90;;;;;;4878345;29;20594;-84
2021/04/16 00:15:38;;;;;;;17.97;9.87;;;5.00;99.90;;;;;;4878115;29;20225;-83
2021/04/16 00:18:06;;;;;;;15.93;7.90;;;5.00;99.90;;;;;;4863600;29;20553;-84
2021/04/16 00:20:32;;;;;;;20.63;10.30;;;5.10;99.90;;;;;;4863724;29;20193;-84
2021/04/16 00:22:58;;;;;;;18.57;9.80;;;5.00;99.90;;;;;;4878194;29;20197;-85
2021/04/16 00:25:27;;;;;;;20.83;10.67;;;5.00;99.90;;;;;;4863516;29;20191;-84
2021/04/16 00:27:54;;;;;;;19.10;10.83;;;5.00;99.90;;;;;;4863344;29;20189;-85
2021/04/16 00:30:24;;;;;;;18.53;10.50;;;5.00;99.90;;;;;;4878132;29;20242;-84
2021/04/16 00:32:49;;;;;;;22.20;10.63;;;5.00;99.90;;;;;;4864046;29;20262;-84
2021/04/16 00:35:15;;;;;;;19.40;10.30;;;5.10;99.90;;;;;;4877841;29;20281;-85
2021/04/16 00:37:41;;;;;;;18.77;10.23;;;5.00;99.90;;;;;;4863058;29;20218;-85
2021/04/16 00:40:11;;;;;;;21.40;10.50;;;5.00;99.90;;;;;;4877626;29;20194;-85
2021/04/16 00:42:37;;;;;;;22.47;11.00;;;5.00;99.90;;;;;;4863590;29;20271;-83
2021/04/16 00:45:04;;;;;;;22.17;10.97;;;5.00;99.90;;;;;;4877078;29;20277;-85
2021/04/16 00:47:31;;;;;;;17.43;9.97;;;3.80;99.90;;;;;;4878688;29;20599;-85
2021/04/16 00:50:03;;;;;;;19.60;10.50;;;5.20;99.90;;;;;;4862650;29;20186;-84
2021/04/16 00:52:32;;;;;;;21.83;14.37;;;5.20;99.90;;;;;;4863031;29;20206;-85
2021/04/16 00:55:00;;;;;;;17.20;10.10;;;5.20;99.90;;;;;;4862844;29;20185;-85
2021/04/16 00:57:26;;;;;;;19.90;10.53;;;5.20;99.90;;;;;;4862691;29;20207;-85
2021/04/16 00:59:56;;;;;;;18.70;11.03;;;5.30;99.90;;;;;;4862503;29;20644;-85
2021/04/16 01:02:22;;;;;;;19.77;11.90;;;5.40;99.90;;;;;;4863043;29;20182;-85
2021/04/16 01:04:48;;;;;;;18.23;10.33;;;5.30;99.90;;;;;;4862287;29;20181;-85
2021/04/16 01:07:15;;;;;;;18.67;11.07;;;5.30;99.90;;;;;;4862909;29;20217;-84
2021/04/16 01:09:41;;;;;;;21.47;12.00;;;5.30;99.90;;;;;;4862112;29;20241;-84
2021/04/16 01:12:11;;;;;;;20.63;11.57;;;5.30;99.90;;;;;;4876564;29;20186;-85
2021/04/16 01:14:39;;;;;;;21.63;11.53;;;5.30;99.90;;;;;;4862586;29;20193;-84
2021/04/16 01:17:07;;;;;;;22.03;13.10;;;5.30;99.90;;;;;;4862121;29;20353;-84
2021/04/16 01:19:40;;;;;;;22.90;12.33;;;5.30;99.90;;;;;;4876714;29;20234;-84
2021/04/16 01:22:22;;;;;;;19.07;12.03;;;5.30;99.90;;;;;;4876381;29;20542;-84
2021/04/16 01:24:49;;;;;;;24.50;12.67;;;5.40;99.90;;;;;;4861987;29;20269;-84
2021/04/16 01:27:14;;;;;;;19.70;11.47;;;5.30;99.90;;;;;;4862513;29;20267;-85
2021/04/16 01:29:43;;;;;;;19.57;11.43;;;5.40;99.90;;;;;;4861746;29;20299;-84
2021/04/16 01:32:12;;;;;;;24.33;13.73;;;5.50;99.90;;;;;;4862267;29;20183;-84
2021/04/16 01:34:37;;;;;;;22.93;12.60;;;5.40;99.90;;;;;;4862377;29;20636;-84
2021/04/16 01:37:04;;;;;;;20.77;12.33;;;5.50;99.90;;;;;;4861830;29;20224;-84
2021/04/16 01:39:31;;;;;;;17.13;11.93;;;5.50;99.90;;;;;;4861890;29;20202;-85
2021/04/16 01:41:58;;;;;;;23.30;13.70;;;5.60;99.90;;;;;;4861937;29;20214;-85
2021/04/16 01:44:28;;;;;;;23.30;13.00;;;5.50;99.90;;;;;;4862126;29;20190;-85
2021/04/16 01:46:57;;;;;;;23.90;12.10;;;5.50;99.90;;;;;;4861612;29;20193;-85
2021/04/16 01:49:26;;;;;;;21.83;13.30;;;5.50;99.90;;;;;;4862170;29;20220;-85
2021/04/16 01:51:53;;;;;;;21.47;13.80;;;5.50;99.90;;;;;;4861692;29;20197;-85
2021/04/16 01:54:26;;;;;;;19.87;12.77;;;5.50;99.90;;;;;;4876495;29;20193;-86
2021/04/16 01:57:02;;;;;;;19.97;12.03;;;5.50;99.90;;;;;;4861957;29;20284;-85
2021/04/16 01:59:34;;;;;;;15.27;9.87;;;5.50;99.90;;;;;;4861917;29;20246;-85
2021/04/16 02:02:02;;;;;;;17.63;11.17;;;5.60;99.90;;;;;;4875741;29;20220;-84
2021/04/16 02:04:28;;;;;;;21.83;13.43;;;5.50;99.90;;;;;;4861632;29;20185;-84
2021/04/16 02:06:54;;;;;;;24.43;13.37;;;5.50;99.90;;;;;;4861438;29;20190;-84
2021/04/16 02:09:29;;;;;;;19.83;12.27;;;5.50;99.90;;;;;;4875623;29;20249;-83
2021/04/16 02:11:55;;;;;;;20.67;12.90;;;5.50;99.90;;;;;;4860935;29;20193;-83
2021/04/16 02:14:24;;;;;;;21.63;13.20;;;5.50;99.90;;;;;;4875520;29;20193;-83
2021/04/16 02:16:53;;;;;;;20.27;11.20;;;5.50;99.90;;;;;;4860825;29;20249;-83
2021/04/16 02:19:19;;;;;;;17.80;12.90;;;5.50;99.90;;;;;;4860706;29;20218;-84
2021/04/16 02:21:45;;;;;;;18.93;12.17;;;5.50;99.90;;;;;;4861464;29;20228;-83
2021/04/16 02:24:11;;;;;;;16.33;10.17;;;5.50;99.90;;;;;;4875342;29;20218;-84
2021/04/16 02:26:37;;;;;;;17.03;11.17;;;5.50;99.90;;;;;;4861513;29;20191;-83
2021/04/16 02:29:06;;;;;;;17.03;11.03;;;5.50;99.90;;;;;;4874847;29;20584;-84
2021/04/16 02:31:32;;;;;;;16.67;11.03;;;5.40;99.90;;;;;;4861094;29;20202;-84
2021/04/16 02:33:59;;;;;;;15.10;10.40;;;5.40;99.90;;;;;;4860894;29;20187;-84
2021/04/16 02:36:25;;;;;;;18.00;10.37;;;5.50;99.90;;;;;;4861171;29;20658;-84
2021/04/16 02:38:52;;;;;;;15.30;9.67;;;5.50;99.90;;;;;;4859919;29;20280;-84
2021/04/16 02:41:18;;;;;;;16.43;10.27;;;5.50;99.90;;;;;;4861065;29;20598;-84
2021/04/16 02:43:44;;;;;;;16.30;10.47;;;5.40;99.90;;;;;;4875113;29;20186;-84
2021/04/16 02:46:10;;;;;;;13.43;10.10;;;5.40;99.90;;;;;;4860520;29;20221;-84
2021/04/16 02:48:35;;;;;;;14.80;10.63;;;5.40;99.90;;;;;;4874899;29;20528;-84
2021/04/16 02:51:01;;;;;;;18.77;11.30;;;5.30;99.90;;;;;;4874715;29;20190;-84
2021/04/16 02:53:27;;;;;;;16.63;10.83;;;5.30;99.90;;;;;;4860932;29;20186;-85
2021/04/16 02:55:52;;;;;;;18.60;11.10;;;5.30;99.90;;;;;;4875241;29;20186;-84
2021/04/16 02:58:18;;;;;;;17.70;10.70;;;5.30;99.90;;;;;;4874765;29;20202;-85
2021/04/16 03:00:44;;;;;;;15.80;10.90;;;5.30;99.90;;;;;;4875029;29;20186;-85
2021/04/16 03:03:09;;;;;;;18.37;11.43;;;5.30;99.90;;;;;;4860507;29;20528;-85
2021/04/16 03:05:35;;;;;;;13.93;10.53;;;5.30;99.90;;;;;;4860974;29;20221;-85
2021/04/16 03:08:01;;;;;;;16.87;11.47;;;5.30;99.90;;;;;;4860557;29;20298;-84
2021/04/16 03:10:30;;;;;;;15.50;10.43;;;5.20;99.90;;;;;;4874896;29;20647;-84
2021/04/16 03:12:56;;;;;;;14.50;9.50;;;5.20;99.90;;;;;;4875391;29;20597;-83
2021/04/16 03:15:22;;;;;;;17.17;10.63;;;5.20;99.90;;;;;;4860650;29;20190;-85
2021/04/16 03:17:48;;;;;;;16.40;9.77;;;5.30;99.90;;;;;;4860698;29;20305;-84
2021/04/16 03:20:15;;;;;;;15.63;10.37;;;5.30;99.90;;;;;;4874571;29;20316;-85
2021/04/16 03:22:41;;;;;;;15.40;9.23;;;5.30;99.90;;;;;;4860872;29;20273;-86
2021/04/16 03:25:09;;;;;;;17.93;10.20;;;6.00;99.90;;;;;;4874365;29;20186;-88
2021/04/16 03:27:36;;;;;;;15.17;10.57;;;5.20;99.90;;;;;;4875261;29;20566;-84
2021/04/16 03:30:06;;;;;;;14.70;9.83;;;5.20;99.90;;;;;;4874551;29;20640;-85
2021/04/16 03:32:32;;;;;;;14.00;9.20;;;5.20;99.90;;;;;;4864557;29;20193;-85
2021/04/16 03:34:58;;;;;;;12.27;7.97;;;5.20;99.90;;;;;;4878957;29;20556;-84
2021/04/16 03:37:23;;;;;;;13.57;9.43;;;5.20;99.90;;;;;;4864173;29;20583;-85
2021/04/16 03:39:49;;;;;;;15.87;9.93;;;5.20;99.90;;;;;;4864559;29;20553;-85
2021/04/16 03:42:15;;;;;;;12.27;9.37;;;5.20;99.90;;;;;;4864637;29;20230;-84
2021/04/16 03:44:41;;;;;;;13.37;9.53;;;5.10;99.90;;;;;;4886703;29;20295;-83
2021/04/16 03:47:06;;;;;;;13.00;8.93;;;5.10;99.90;;;;;;4886635;29;20196;-82
2021/04/16 03:49:32;;;;;;;15.90;10.47;;;5.10;99.90;;;;;;4896007;29;20661;-84
2021/04/16 03:52:00;;;;;;;12.87;9.73;;;5.20;99.90;;;;;;4879602;29;20568;-85
2021/04/16 03:54:27;;;;;;;15.13;10.57;;;5.20;99.90;;;;;;4864709;29;20246;-85
2021/04/16 03:56:53;;;;;;;12.97;8.83;;;5.20;99.90;;;;;;4878465;29;20225;-84
2021/04/16 03:59:21;;;;;;;15.37;8.20;;;5.20;99.90;;;;;;4863904;29;20201;-84
2021/04/16 04:01:47;;;;;;;14.53;9.10;;;5.20;99.90;;;;;;4864228;29;20242;-84
2021/04/16 04:04:13;;;;;;;13.27;9.07;;;5.10;99.90;;;;;;4863793;29;20186;-84
2021/04/16 04:06:38;;;;;;;12.77;8.43;;;5.10;99.90;;;;;;4878694;29;20205;-84
2021/04/16 04:09:05;;;;;;;12.40;8.63;;;5.10;99.90;;;;;;4863450;29;20193;-84
2021/04/16 04:11:32;;;;;;;11.97;8.13;;;5.10;99.90;;;;;;4864050;29;20191;-85
2021/04/16 04:13:59;;;;;;;12.87;9.47;;;5.10;99.90;;;;;;4864130;29;20604;-85
2021/04/16 04:16:25;;;;;;;10.67;8.00;;;5.10;99.90;;;;;;4877636;29;20218;-85
2021/04/16 04:18:51;;;;;;;12.80;9.77;;;5.10;99.90;;;;;;4878139;29;20290;-86
2021/04/16 04:21:17;;;;;;;12.43;9.07;;;5.10;99.90;;;;;;4877595;29;20637;-85
2021/04/16 04:23:43;;;;;;;10.60;8.20;;;5.10;99.90;;;;;;4863603;29;20640;-86
2021/04/16 04:26:08;;;;;;;13.00;8.17;;;5.10;99.90;;;;;;4862642;29;20233;-84
2021/04/16 04:28:34;;;;;;;11.20;7.87;;;5.10;99.90;;;;;;4863290;29;20201;-85
2021/04/16 04:31:00;;;;;;;10.07;8.03;;;5.10;99.90;;;;;;4877586;29;20328;-86
2021/04/16 04:33:26;;;;;;;11.93;8.37;;;5.10;99.90;;;;;;4862828;29;20207;-86
2021/04/16 04:35:52;;;;;;;11.37;8.07;;;5.00;99.90;;;;;;4863041;29;20549;-86
2021/04/16 04:38:18;;;;;;;10.70;7.17;;;5.10;99.90;;;;;;4877379;29;20209;-86
2021/04/16 04:40:45;;;;;;;12.60;7.90;;;5.00;99.90;;;;;;4877846;29;20592;-86
2021/04/16 04:43:12;;;;;;;11.53;7.17;;;5.00;99.90;;;;;;4876408;29;20273;-85
2021/04/16 04:45:37;;;;;;;8.80;6.70;;;5.00;99.90;;;;;;4864618;29;20538;-86
2021/04/16 04:48:04;;;;;;;10.40;8.03;;;5.00;99.90;;;;;;4890164;29;20232;-85
2021/04/16 04:50:30;;;;;;;10.90;7.67;;;5.00;99.90;;;;;;4876375;29;20697;-85
2021/04/16 04:52:56;;;;;;;10.60;7.73;;;5.00;99.90;;;;;;4876683;29;20206;-85
2021/04/16 04:55:30;;;;;;;10.27;8.37;;;5.00;99.90;;;;;;4863439;29;20197;-85
2021/04/16 04:57:58;;;;;;;10.33;7.00;;;4.90;99.90;;;;;;4880601;29;20284;-85
2021/04/16 05:00:25;;;;;;;10.73;7.50;;;5.00;99.90;;;;;;4878431;29;20228;-85
2021/04/16 05:02:51;;;;;;;11.67;7.93;;;4.90;99.90;;;;;;4879091;29;20677;-85
2021/04/16 05:05:19;;;;;;;10.37;6.33;;;5.00;99.90;;;;;;4878317;29;20193;-85
2021/04/16 05:07:44;;;;;;;12.40;8.07;;;4.90;99.90;;;;;;4880106;29;20192;-85
2021/04/16 05:10:11;;;;;;;9.53;6.33;;;4.90;99.90;;;;;;4879458;29;20249;-85
2021/04/16 05:12:37;;;;;;;9.13;6.57;;;5.00;99.90;;;;;;4872806;29;20196;-84
2021/04/16 05:15:05;;;;;;;9.10;5.67;;;5.00;99.90;;;;;;4872760;29;20256;-85
2021/04/16 05:17:31;;;;;;;8.53;5.90;;;5.00;99.90;;;;;;4874387;29;21149;-85
2021/04/16 05:19:56;;;;;;;9.03;6.23;;;5.00;99.90;;;;;;4870499;29;20198;-85
2021/04/16 05:22:22;;;;;;;7.37;5.50;;;5.00;99.90;;;;;;4867903;29;20196;-86
2021/04/16 05:24:49;;;;;;;7.80;5.03;;;5.00;99.90;;;;;;4886696;29;20246;-85
2021/04/16 05:27:17;;;;;;;8.43;5.53;;;4.90;99.90;;;;;;4881016;29;20680;-85
2021/04/16 05:29:43;;;;;;;7.93;5.40;;;5.00;99.90;;;;;;4868316;29;20229;-84
2021/04/16 05:32:10;;;;;;;8.90;5.53;;;4.90;99.90;;;;;;4870418;29;20221;-84
2021/04/16 05:34:35;;;;;;;7.40;5.10;;;4.90;99.90;;;;;;4889596;29;20193;-83
2021/04/16 05:37:02;;;;;;;7.70;5.37;;;4.90;99.90;;;;;;4878897;29;20212;-84
2021/04/16 05:39:28;;;;;;;7.87;5.30;;;4.90;99.90;;;;;;4868536;29;20663;-83
2021/04/16 05:41:53;;;;;;;9.67;5.40;;;4.90;99.90;;;;;;4868573;29;20201;-84
2021/04/16 05:44:19;;;;;;;9.07;5.53;;;5.00;99.90;;;;;;4886528;29;20206;-84
2021/04/16 05:46:45;;;;;;;8.13;4.83;;;5.00;99.90;;;;;;4875351;29;20232;-84
2021/04/16 05:49:11;;;;;;;9.53;5.50;;;5.00;99.90;;;;;;4879233;29;20671;-85
2021/04/16 05:51:38;;;;;;;9.17;5.57;;;4.90;99.90;;;;;;4877793;29;20677;-84
2021/04/16 05:54:05;;;;;;;7.13;4.93;;;4.90;99.90;;;;;;4870692;29;20213;-84
2021/04/16 05:56:31;;;;;;;8.60;5.47;;;4.90;99.90;;;;;;4889599;29;20217;-84
2021/04/16 05:58:56;;;;;;;7.67;5.80;;;4.90;99.90;;;;;;4878032;29;20253;-84
2021/04/16 06:01:22;;;;;;;8.00;5.80;;;4.90;99.90;;;;;;4876663;29;20648;-85
2021/04/16 06:03:49;;;;;;;9.00;5.70;;;5.00;99.90;;;;;;4878072;29;20197;-84
2021/04/16 06:06:15;;;;;;;9.33;5.67;;;4.90;99.90;;;;;;4892211;29;20538;-84
2021/04/16 06:08:42;;;;;;;8.10;5.30;;;5.00;99.90;;;;;;4877728;29;20205;-83
2021/04/16 06:11:09;;;;;;;10.73;5.33;;;5.00;99.90;;;;;;4875748;29;20200;-85
2021/04/16 06:13:38;;;;;;;7.50;5.10;;;5.00;99.90;;;;;;4877996;29;20271;-83
2021/04/16 06:16:05;;;;;;;8.17;4.93;;;5.00;99.90;;;;;;4878826;29;20557;-83
2021/04/16 06:18:31;;;;;;;10.33;6.13;;;6.60;99.90;;;;;;4878633;29;20236;-83
2021/04/16 06:20:57;;;;;;;9.37;6.07;;;7.40;99.90;;;;;;4876314;29;20193;-85
2021/04/16 06:23:24;;;;;;;10.30;6.43;;;5.00;99.90;;;;;;4868057;29;20194;-85
2021/04/16 06:25:50;;;;;;;12.23;6.77;;;5.00;99.90;;;;;;4878994;29;20201;-86
2021/04/16 06:28:17;;;;;;;11.80;6.87;;;5.00;99.90;;;;;;4878118;29;20751;-85
2021/04/16 06:30:44;;;;;;;9.47;6.17;;;5.00;99.90;;;;;;4891474;29;20726;-85
2021/04/16 06:33:16;;;;;;;10.53;7.10;;;5.00;99.90;;;;;;4872180;29;20234;-86
2021/04/16 06:35:49;;;;;;;13.70;6.83;;;5.00;99.90;;;;;;4895268;29;20182;-85
2021/04/16 06:38:19;;;;;;;10.63;6.50;;;5.00;99.90;;;;;;4881603;29;20303;-84
2021/04/16 06:40:48;;;;;;;13.17;7.57;;;5.00;99.90;;;;;;4881809;29;20647;-84
2021/04/16 06:43:14;;;;;;;10.93;6.47;;;5.00;99.90;;;;;;4880278;29;20512;-86
2021/04/16 06:45:40;;;;;;;10.97;6.87;;;5.10;99.90;;;;;;4880445;29;20241;-86
2021/04/16 06:48:09;;;;;;;9.47;6.00;;;5.10;99.90;;;;;;4879208;29;20264;-85
2021/04/16 06:50:38;;;;;;;10.20;6.17;;;5.10;99.90;;;;;;4880015;29;20679;-83
2021/04/16 06:53:25;;;;;;;8.17;5.50;;;5.20;99.90;;;;;;4871750;29;20221;-84
2021/04/16 06:56:05;;;;;;;8.43;4.93;;;5.20;99.90;;;;;;4874580;29;20186;-84
2021/04/16 06:58:36;;;;;;;8.70;5.83;;;5.20;99.90;;;;;;4871195;29;20284;-87
2021/04/16 07:01:09;;;;;;;5.77;4.60;;;5.20;99.90;;;;;;4876849;29;20272;-84
2021/04/16 07:03:44;;;;;;;5.10;3.90;;;5.20;99.90;;;;;;4875207;29;20201;-84
2021/04/16 07:06:21;;;;;;;8.00;4.57;;;5.20;99.90;;;;;;4873456;29;20549;-84
2021/04/16 07:08:47;;;;;;;6.53;4.80;;;5.20;99.90;;;;;;4869771;29;20186;-84
2021/04/16 07:11:26;;;;;;;6.27;4.73;;;5.20;99.90;;;;;;4869917;29;20198;-83
2021/04/16 07:13:52;;;;;;;9.03;5.37;;;5.20;99.90;;;;;;4880755;29;20189;-82
2021/04/16 07:16:22;;;;;;;8.00;5.00;;;5.30;99.90;;;;;;4874047;29;20242;-82
2021/04/16 07:18:53;;;;;;;6.53;4.70;;;5.30;99.90;;;;;;4887918;29;20566;-85
2021/04/16 07:21:20;;;;;;;6.47;4.37;;;5.20;99.90;;;;;;4876832;29;20675;-82
2021/04/16 07:23:50;;;;;;;4.77;3.60;;;5.30;99.90;;;;;;4866426;29;20195;-84
2021/04/16 07:26:38;;;;;;;5.77;3.93;;;5.20;99.90;;;;;;4879007;29;20241;-84
2021/04/16 07:29:06;;;;;;;5.90;4.00;;;5.20;99.90;;;;;;4878835;29;20236;-83
2021/04/16 07:31:43;;;;;;;5.40;3.90;;;5.20;99.90;;;;;;4877486;29;20194;-83
2021/04/16 07:34:27;;;;;;;5.63;4.30;;;5.30;99.90;;;;;;4879159;29;20232;-84
2021/04/16 07:36:53;;;;;;;7.57;4.40;;;5.30;99.90;;;;;;4876329;29;20241;-84
2021/04/16 07:39:27;;;;;;;8.07;5.00;;;5.30;99.90;;;;;;4869636;29;20187;-84
2021/04/16 07:42:18;;;;;;;10.37;6.10;;;5.30;99.90;;;;;;4864675;29;20217;-85
2021/04/16 07:45:21;;;;;;;8.07;5.40;;;5.30;99.90;;;;;;4880641;29;20186;-85
2021/04/16 07:47:47;;;;;;;6.87;4.70;;;5.30;99.90;;;;;;4884984;29;20602;-86
2021/04/16 07:50:28;;;;;;;7.97;5.30;;;5.30;99.90;;;;;;4877204;29;20282;-85
2021/04/16 07:52:55;;;;;;;7.23;5.00;;;5.30;99.90;;;;;;4893875;29;20598;-85
2021/04/16 07:55:31;;;;;;;5.93;4.40;;;5.20;99.90;;;;;;4893475;29;20241;-85
2021/04/16 07:58:15;;;;;;;6.93;4.77;;;5.20;99.90;;;;;;4880463;29;20220;-86
2021/04/16 08:00:46;;;;;;;6.23;4.60;;;5.20;99.90;;;;;;4880350;29;20222;-85
2021/04/16 08:03:26;;;;;;;6.57;5.03;;;5.20;99.90;;;;;;4879350;29;20595;-85
2021/04/16 08:05:59;;;;;;;6.50;4.87;;;5.20;99.90;;;;;;4893813;29;20212;-86
2021/04/16 08:08:26;;;;;;;6.17;4.60;;;5.20;99.90;;;;;;4879796;29;20241;-87
2021/04/16 08:10:56;;;;;;;5.83;4.57;;;5.20;99.90;;;;;;4879697;29;20277;-86
2021/04/16 08:13:25;;;;;;;7.00;5.23;;;5.20;99.90;;;;;;4879247;29;20182;-87
2021/04/16 08:15:53;;;;;;;8.20;5.50;;;5.20;99.90;;;;;;4881431;29;20238;-85
2021/04/16 08:18:19;;;;;;;10.03;6.60;;;5.20;99.90;;;;;;4881771;29;20251;-85
2021/04/16 08:21:06;;;;;;;12.23;5.83;;;5.20;99.90;;;;;;4881098;29;20201;-86
2021/04/16 08:23:46;;;;;;;6.97;5.80;;;5.20;99.90;;;;;;4896842;29;20233;-84
2021/04/16 08:26:13;;;;;;;7.70;5.30;;;5.20;99.90;;;;;;4882093;29;20174;-85
2021/04/16 08:28:57;;;;;;;7.60;5.80;;;5.20;99.90;;;;;;4882006;29;20201;-85
2021/04/16 08:31:32;;;;;;;8.97;6.03;;;5.20;99.90;;;;;;4882114;29;20198;-83
2021/04/16 08:34:09;;;;;;;8.50;6.23;;;5.20;99.90;;;;;;4883215;29;20185;-86
2021/04/16 08:36:38;;;;;;;8.80;6.40;;;5.20;99.90;;;;;;4885761;29;20226;-89
2021/04/16 08:39:29;;;;;;;10.67;7.83;;;5.20;99.90;;;;;;4882776;29;20185;-88
2021/04/16 08:42:10;;;;;;;9.43;6.97;;;5.20;99.90;;;;;;4882929;29;20202;-88
2021/04/16 08:44:46;;;;;;;8.43;6.60;;;5.30;99.90;;;;;;4881720;29;20197;-85
2021/04/16 08:47:25;;;;;;;9.97;5.80;;;5.30;99.90;;;;;;4864316;29;20292;-84
2021/04/16 08:49:52;;;;;;;9.70;6.20;;;5.30;99.90;;;;;;4861800;29;20266;-83
2021/04/16 08:52:46;;;;;;;9.87;6.87;;;5.30;99.90;;;;;;4862333;29;20186;-84
2021/04/16 08:55:36;;;;;;;8.57;6.20;;;5.30;99.90;;;;;;4862308;29;20193;-85
2021/04/16 08:58:23;;;;;;;10.70;7.17;;;5.30;99.90;;;;;;4863191;29;20206;-86
2021/04/16 09:00:56;;;;;;;10.10;7.00;;;5.40;99.90;;;;;;4869167;29;20197;-86
2021/04/16 09:03:40;;;;;;;9.23;6.87;;;5.40;99.90;;;;;;4898311;29;20312;-83
2021/04/16 09:06:07;;;;;;;9.10;6.07;;;5.40;99.90;;;;;;4903025;29;20206;-82
2021/04/16 09:08:45;;;;;;;10.80;6.40;;;5.40;99.90;;;;;;4901462;29;20185;-86
2021/04/16 09:11:12;;;;;;;9.17;7.10;;;5.50;99.90;;;;;;4883933;29;20188;-84
2021/04/16 09:13:41;;;;;;;8.53;6.63;;;5.50;99.90;;;;;;4883929;29;20260;-86
2021/04/16 09:16:15;;;;;;;13.17;6.20;;;5.50;99.90;;;;;;4883144;29;20193;-86
2021/04/16 09:19:23;;;;;;;8.03;6.20;;;5.50;99.90;;;;;;4882910;29;20205;-85
2021/04/16 09:22:03;;;;;;;6.10;5.43;;;5.50;99.90;;;;;;4881791;29;20189;-84
2021/04/16 09:25:06;;;;;;;8.53;6.33;;;5.50;99.90;;;;;;4882738;29;20208;-84
2021/04/16 09:27:38;;;;;;;9.10;5.80;;;5.60;99.90;;;;;;4881789;29;20253;-86
2021/04/16 09:30:08;;;;;;;10.63;6.50;;;5.60;99.90;;;;;;4879914;29;20240;-85
2021/04/16 09:32:37;;;;;;;8.87;5.87;;;5.60;99.90;;;;;;4879571;29;20273;-85
2021/04/16 09:35:18;;;;;;;11.60;7.13;;;5.70;99.90;;;;;;4875776;29;20750;-85
2021/04/16 09:37:46;;;;;;;11.03;7.07;;;5.70;99.90;;;;;;4886438;29;20601;-85
2021/04/16 09:40:19;;;;;;;10.33;6.90;;;5.70;99.90;;;;;;4875738;29;20284;-88
2021/04/16 09:43:21;;;;;;;9.47;6.13;;;5.60;99.90;;;;;;4891894;29;20193;-85
2021/04/16 09:45:54;;;;;;;8.07;5.87;;;5.70;99.90;;;;;;4874092;29;20209;-87
2021/04/16 09:48:22;;;;;;;9.07;6.80;;;5.70;99.90;;;;;;4893460;29;20601;-86
2021/04/16 09:50:57;;;;;;;12.13;7.47;;;5.60;99.90;;;;;;4879814;29;20554;-84
2021/04/16 09:53:27;;;;;;;8.97;7.10;;;5.60;99.90;;;;;;4894149;29;20233;-85
2021/04/16 09:55:56;;;;;;;8.80;6.20;;;5.60;99.90;;;;;;4879476;29;20177;-86
2021/04/16 09:58:42;;;;;;;8.80;6.53;;;5.60;99.90;;;;;;4878664;29;20750;-84
2021/04/16 10:01:19;;;;;;;9.73;7.07;;;5.70;99.90;;;;;;4876592;29;20192;-85
2021/04/16 10:03:59;;;;;;;9.57;6.50;;;5.70;99.90;;;;;;4887911;29;20543;-86
2021/04/16 10:06:38;;;;;;;8.67;6.87;;;5.80;99.90;;;;;;4885991;29;20202;-86
2021/04/16 10:09:17;;;;;;;9.73;7.00;;;5.80;99.90;;;;;;4880041;29;20196;-89
2021/04/16 10:12:01;;;;;;;7.57;5.97;;;5.70;99.90;;;;;;4879616;29;20189;-83
2021/04/16 10:14:39;;;;;;;10.77;7.73;;;5.80;99.90;;;;;;4874676;29;20218;-83
2021/04/16 10:17:13;;;;;;;10.73;7.03;;;5.90;99.90;;;;;;4877442;29;20249;-86
2021/04/16 10:19:47;;;;;;;8.97;6.40;;;5.90;99.90;;;;;;4872609;29;20186;-86
2021/04/16 10:22:26;;;;;;;9.17;6.90;;;5.90;99.90;;;;;;4871250;29;20186;-87
2021/04/16 12:39:22;;;;;;;10.90;7.77;;;6.10;99.90;;;;;;4890520;29;20289;-84
2021/04/16 12:41:54;;;;;;;12.67;8.83;;;6.10;99.90;;;;;;4880694;29;20227;-83
2021/04/16 12:44:26;;;;;;;16.00;9.90;;;6.10;99.90;;;;;;4880918;29;20212;-84
2021/04/16 12:46:54;;;;;;;18.13;9.57;;;6.10;99.90;;;;;;4881401;29;20192;-83
2021/04/16 12:49:19;;;;;;;14.20;9.30;;;6.10;99.90;;;;;;4881351;29;20204;-83
2021/04/16 12:51:45;;;;;;;14.33;9.40;;;6.10;99.90;;;;;;4878952;29;20712;-84
2021/04/16 12:54:10;;;;;;;16.80;9.20;;;6.20;99.90;;;;;;4864066;29;20186;-84
2021/04/16 12:56:42;;;;;;;14.47;8.53;;;6.10;99.90;;;;;;4895529;29;20224;-84
2021/04/16 12:59:14;;;;;;;17.23;9.67;;;6.20;99.90;;;;;;4881066;29;20202;-85
2021/04/16 13:01:42;;;;;;;18.83;11.50;;;6.10;99.90;;;;;;4881151;29;20245;-85
2021/04/16 13:04:08;;;;;;;17.07;10.43;;;6.20;99.90;;;;;;4880504;29;20561;-86
2021/04/16 13:06:38;;;;;;;16.10;10.17;;;6.20;99.90;;;;;;4880159;29;20205;-85
2021/04/16 13:09:06;;;;;;;13.83;8.47;;;6.30;99.90;;;;;;4880384;29;20512;-85
2021/04/16 13:11:32;;;;;;;16.00;10.10;;;6.30;99.90;;;;;;4890127;29;20235;-86
2021/04/16 13:13:58;;;;;;;18.23;11.00;;;6.30;99.90;;;;;;4893617;29;20557;-86
2021/04/16 13:16:24;;;;;;;17.33;10.90;;;6.30;99.90;;;;;;4880605;29;20186;-86
2021/04/16 13:19:00;;;;;;;14.30;9.70;;;6.30;99.90;;;;;;4877236;29;20244;-84
2021/04/16 13:21:36;;;;;;;18.47;11.27;;;6.30;99.90;;;;;;4881681;29;20190;-83
2021/04/16 13:24:03;;;;;;;19.53;10.57;;;6.30;99.90;;;;;;4877157;29;20236;-85
2021/04/16 13:26:29;;;;;;;17.23;11.53;;;6.30;99.90;;;;;;4888815;29;20198;-86
2021/04/16 13:28:55;;;;;;;30.00;18.27;;;6.30;99.90;;;;;;4890806;29;20186;-85
2021/04/16 13:31:22;;;;;;;28.30;18.47;;;6.30;99.90;;;;;;4875685;29;20307;-85
2021/04/16 13:33:49;;;;;;;20.23;13.00;;;6.30;99.90;;;;;;4875837;29;20272;-85
2021/04/16 13:36:18;;;;;;;22.77;15.50;;;5.10;99.90;;;;;;4890856;29;20608;-84
2021/04/16 13:38:44;;;;;;;17.60;12.77;;;6.30;99.90;;;;;;4874695;29;20194;-84
2021/04/16 13:41:11;;;;;;;14.80;10.73;;;6.30;99.90;;;;;;4877208;29;20182;-83
2021/04/16 13:43:37;;;;;;;19.03;12.70;;;6.30;99.90;;;;;;4874247;29;20197;-85
2021/04/16 13:46:06;;;;;;;20.53;13.23;;;6.30;99.90;;;;;;4877271;29;20196;-85
2021/04/16 13:48:32;;;;;;;18.97;11.17;;;6.30;99.90;;;;;;4874761;29;20186;-86
2021/04/16 13:50:58;;;;;;;19.47;11.57;;;6.30;99.90;;;;;;4868889;29;20222;-84
2021/04/16 13:53:24;;;;;;;19.27;11.10;;;6.30;99.90;;;;;;4889652;29;20262;-84
2021/04/16 13:55:50;;;;;;;17.70;11.83;;;6.30;99.90;;;;;;4877439;29;20554;-83
2021/04/16 13:58:16;;;;;;;15.93;11.50;;;6.30;99.90;;;;;;4871924;29;20775;-83
2021/04/16 14:00:42;;;;;;;16.20;10.73;;;6.30;99.90;;;;;;4872904;29;20185;-84
2021/04/16 14:03:28;;;;;;;15.23;10.77;;;6.30;99.90;;;;;;4864373;29;20195;-85
2021/04/16 14:05:57;;;;;;;15.30;10.77;;;6.30;99.90;;;;;;4877022;29;20281;-86
2021/04/16 14:08:29;;;;;;;16.90;12.03;;;6.30;99.90;;;;;;4876299;29;20209;-86
2021/04/16 14:10:55;;;;;;;14.90;10.50;;;6.30;99.90;;;;;;4885853;29;20194;-84
2021/04/16 14:13:20;;;;;;;17.07;10.47;;;6.30;99.90;;;;;;4880645;29;20246;-89
2021/04/16 14:15:46;;;;;;;19.17;11.80;;;6.30;99.90;;;;;;4898553;29;20197;-87
2021/04/16 14:18:36;;;;;;;19.73;11.23;;;6.30;99.90;;;;;;4891335;29;20273;-89
2021/04/16 14:21:07;;;;;;;12.70;9.80;;;6.30;99.90;;;;;;4878468;29;20628;-84
2021/04/16 14:23:33;;;;;;;14.37;10.23;;;6.30;99.90;;;;;;4887771;29;20726;-85
2021/04/16 14:26:00;;;;;;;15.23;10.20;;;6.30;99.90;;;;;;4875369;29;20185;-84
2021/04/16 14:28:26;;;;;;;15.83;11.23;;;6.40;99.90;;;;;;4892725;29;20223;-84
2021/04/16 14:30:55;;;;;;;17.07;10.00;;;6.30;99.90;;;;;;4877720;29;20248;-86
2021/04/16 14:33:26;;;;;;;15.27;9.43;;;6.30;99.90;;;;;;4889106;29;20672;-86
2021/04/16 14:35:53;;;;;;;15.03;9.07;;;6.30;99.90;;;;;;4877462;29;20186;-87
2021/04/16 14:38:19;;;;;;;15.27;10.23;;;6.30;99.90;;;;;;4875945;29;20711;-86
2021/04/16 14:40:45;;;;;;;17.50;10.67;;;6.30;99.90;;;;;;4875690;29;20189;-86
2021/04/16 14:43:11;;;;;;;20.00;11.70;;;6.30;99.90;;;;;;4890859;29;20185;-89
2021/04/16 14:45:43;;;;;;;15.97;10.13;;;6.40;99.90;;;;;;4876184;29;20200;-85
2021/04/16 14:48:10;;;;;;;14.13;9.30;;;6.30;99.90;;;;;;4876635;29;20225;-85
2021/04/16 14:50:36;;;;;;;17.43;10.33;;;6.40;99.90;;;;;;4875814;29;20206;-85
2021/04/16 14:53:06;;;;;;;13.47;9.57;;;6.30;99.90;;;;;;4878283;29;20556;-88
2021/04/16 14:55:35;;;;;;;17.10;9.40;;;6.30;99.90;;;;;;4892267;29;20181;-85
2021/04/16 14:58:03;;;;;;;16.23;10.00;;;6.30;99.90;;;;;;4870461;29;20210;-84
2021/04/16 15:00:32;;;;;;;13.77;9.63;;;6.30;99.90;;;;;;4876196;29;21002;-85
2021/04/16 15:02:58;;;;;;;14.53;9.70;;;6.40;99.90;;;;;;4877849;29;20203;-85
2021/04/16 15:05:25;;;;;;;17.13;11.07;;;6.30;99.90;;;;;;4878141;29;20686;-86
2021/04/16 15:08:01;;;;;;;16.60;11.03;;;6.30;99.90;;;;;;4880047;29;20196;-90
2021/04/16 15:10:36;;;;;;;15.70;10.30;;;6.40;99.90;;;;;;4879411;29;20214;-85
2021/04/16 15:13:02;;;;;;;17.63;10.03;;;6.30;99.90;;;;;;4879069;29;20195;-86